Wetterdaten: Oktober 2008
Datum Temp Feuchte Luftdruck Regen Wind Richtung Sonnenschein UV Solar Windben
01.10.2008 9,3 C 92 % 996,7 hPa 10,4 l/m 9,4 km/h S-SW 0,25 h 0,8 UV-I 83 W/m 18,5 km/h
02.10.2008 8,4 C 82 % 1001,7 hPa 0,0 l/m 11,5 km/h S-SW 3,25 h 1,3 UV-I 208 W/m 24,5 km/h
03.10.2008 6,0 C 84 % 1007,2 hPa 0,4 l/m 5,5 km/h S 4,50 h 1,3 UV-I 225 W/m 9,7 km/h
04.10.2008 5,2 C 85 % 1014,2 hPa 1,8 l/m 5,4 km/h S 1,42 h 1,0 UV-I 150 W/m 12,4 km/h
05.10.2008 8,8 C 92 % 1005,3 hPa 7,4 l/m 9,5 km/h S 0,00 h 0,5 UV-I 38 W/m 16,9 km/h
06.10.2008 10,9 C 96 % 1013,8 hPa 3,0 l/m 1,5 km/h S 0,00 h 0,9 UV-I 77 W/m 4,4 km/h
07.10.2008 13,0 C 91 % 1014,8 hPa 0,2 l/m 5,9 km/h S-SO 2,92 h 1,3 UV-I 182 W/m 10,9 km/h
08.10.2008 13,0 C 92 % 1017,7 hPa 0,4 l/m 7,6 km/h S 1,58 h 1,2 UV-I 163 W/m 15,7 km/h
09.10.2008 9,0 C 92 % 1031,3 hPa 0,4 l/m 1,9 km/h NW 3,08 h 1,3 UV-I 195 W/m 3,6 km/h
10.10.2008 8,9 C 89 % 1032,6 hPa 0,0 l/m 2,1 km/h S 6,75 h 1,5 UV-I 241 W/m 4,8 km/h
11.10.2008 12,1 C 89 % 1028,8 hPa 0,4 l/m 8,2 km/h S 6,42 h 1,5 UV-I 243 W/m 9,6 km/h
12.10.2008 10,5 C 91 % 1025,9 hPa 0,0 l/m 1,2 km/h S 6,33 h 1,4 UV-I 239 W/m 2,0 km/h
13.10.2008 13,6 C 89 % 1018,9 hPa 0,4 l/m 3,9 km/h S 5,83 h 1,3 UV-I 216 W/m 6,8 km/h
14.10.2008 11,4 C 87 % 1019,5 hPa 0,6 l/m 4,8 km/h W-NW 2,25 h 0,9 UV-I 131 W/m 12,1 km/h
15.10.2008 12,5 C 88 % 1013,1 hPa 1,0 l/m 10,4 km/h S 0,75 h 0,9 UV-I 108 W/m 18,5 km/h
16.10.2008 7,9 C 93 % 1009,9 hPa 9,0 l/m 10,0 km/h S-SW 0,17 h 0,8 UV-I 62 W/m 22,9 km/h
17.10.2008 6,1 C 91 % 1018,6 hPa 0,0 l/m 5,2 km/h W 1,17 h 0,8 UV-I 108 W/m 13,7 km/h
18.10.2008 6,3 C 87 % 1019,7 hPa 0,2 l/m 2,9 km/h S 3,17 h 1,1 UV-I 157 W/m 7,2 km/h
19.10.2008 8,8 C 87 % 1021,0 hPa 0,0 l/m 9,4 km/h S 1,25 h 1,1 UV-I 142 W/m 16,5 km/h
20.10.2008 10,2 C 84 % 1013,7 hPa 0,0 l/m 11,1 km/h S 6,08 h 1,3 UV-I 225 W/m 18,1 km/h
21.10.2008 9,4 C 94 % 1011,2 hPa 2,0 l/m 7,8 km/h S 0,00 h 0,6 UV-I 40 W/m 16,5 km/h
22.10.2008 7,1 C 88 % 1023,3 hPa 0,0 l/m 4,5 km/h S-SW 0,58 h 0,8 UV-I 119 W/m 10,9 km/h
23.10.2008 4,9 C 88 % 1027,5 hPa 0,2 l/m 9,4 km/h S 6,50 h 1,2 UV-I 213 W/m 15,3 km/h
24.10.2008 7,7 C 84 % 1025,4 hPa 0,0 l/m 5,9 km/h S 2,17 h 1,0 UV-I 160 W/m 8,4 km/h
25.10.2008 9,4 C 92 % 1030,0 hPa 0,4 l/m 4,5 km/h S 1,83 h 0,8 UV-I 108 W/m 7,6 km/h
26.10.2008 10,5 C 88 % 1015,9 hPa 1,6 l/m 11,1 km/h S 1,33 h 1,0 UV-I 112 W/m 17,7 km/h
27.10.2008 6,8 C 91 % 1006,9 hPa 11,8 l/m 4,4 km/h S 0,67 h 0,7 UV-I 70 W/m 10,5 km/h
28.10.2008 2,3 C 91 % 1009,7 hPa 0,2 l/m 3,0 km/h S 0,42 h 0,9 UV-I 97 W/m 4,8 km/h
29.10.2008 2,7 C 91 % 1006,9 hPa 0,0 l/m 1,0 km/h N-NW 4,00 h 0,9 UV-I 150 W/m 3,6 km/h
30.10.2008 2,2 C 96 % 999,7 hPa 5,0 l/m 2,6 km/h N-NO 0,00 h 0,5 UV-I 38 W/m 5,6 km/h
31.10.2008 3,2 C 95 % 1008,4 hPa 0,0 l/m 2,4 km/h SO 0,33 h 0,6 UV-I 57 W/m 6,4 km/h
Min-Datum 29.10.08 03.10.08 01.10.08 21 Tage 03.10.08 - - - - 03.10.08
Min-Zeit 05:00 14:30 13:40 - 18:40 - - - - 22:10
Minimum -1,6 C 57 % 993,9 hPa - 0,0 km/h - - - - 0,0 km/h
Max-Datum 13.10.08 17.10.08 10.10.08 27.10.08 01.10.08 - 10.10.08 02.10.08 02.10.08 01.10.08
Max-Zeit 14:50 21:55 10:15 02:50 13:24 - 17:10 13:35 13:30 14:15
Maximum 20,2 C 100 % 1035,0 hPa 11,8 l/m 27,5 km/h
S-SW
- 6,67 h 2,7 UV-I 733 W/m 62,8 km/h
S-SW
Durchschnitt 8,3 C 89 % 1015,8 hPa #56,8 l/m 5,9 km/h S #75:00 h 1,0 UV-I 141 W/m 11,5 km/h

Durchschnitt Minimum Temp.4,8 C
Durchschnitt Maximum Temp.12,7 C